Timonium, Maryland
Current Conditions -  °F | °C
As of 10:15 PM on Friday 21 Nov 2014 (Local Time) from KMTN Reporting Station
Clear Clear  
Wind Chill: 27°   Ceiling: Unl
Heat Index: 27°   Visibility: 10mi
Dew Point: 18°   Wind: 0mph
Humidity: 69%   Direction: NA
Pressure: 30.57"   Gusts: NA
Location:  39.4211°N, 76.6266°W
Report Text: KMTN 220315Z AUTO 00000KT 10SM CLR M03/M08 A3057 RMK AO2
Loading
Personal Weather Stations






























Interactive Weather Map New forecast layout! Learn more

10-Day Weather Forecast

Advertisements
Track Severe Weather on mobile